Terminal Aerodrome Forecast
Issued by NWS Billings, MT

Home | Current Version | Previous Version | Graphics & Text | Print | Product List | Glossary On
Versions: 1 2 3 4 5 6 7 8 9 10 11 12 13 14 15 16 17 18 19 20 21 22 23 24 25 26 27 28 29 30 31 32 33 34 35 36
688
FTUS45 KBYZ 070942 AAA
TAFMLS
TAF AMD
KMLS 070942Z 0710/0806 30021G28KT P6SM SCT120 WS020/32055KT
     FM071100 30025G42KT P6SM SCT100
     FM072000 30020G30KT P6SM SCT250
     FM080300 30012KT P6SM FEW100 SCT250=

USA.gov is the U.S. government's official web portal to all federal, state and local government web resources and services.